Time;durP1;ratioP1;P1;durP2;ratioP2;P2;SDS_P1;SDS_P2;PMS_P1;PMS_P2;Temp;Humidity;BMP_temperature;BMP_pressure;BME280_temperature;BME280_humidity;BME280_pressure;Samples;Min_cycle;Max_cycle;Signal;HPM_P1;HPM_P2
2022/07/06 00:02:04;;;;;;;1.30;1.07;;;21.40;90.50;;;;;;5024113;28;20849;-91
2022/07/06 00:04:31;;;;;;;3.43;1.10;;;21.40;90.60;;;;;;5020499;28;20453;-90
2022/07/06 00:06:59;;;;;;;1.20;0.93;;;21.40;90.70;;;;;;5028204;28;20965;-90
2022/07/06 00:09:25;;;;;;;1.10;1.00;;;21.40;90.70;;;;;;5021727;28;20459;-88
2022/07/06 00:11:52;;;;;;;2.53;1.00;;;21.40;90.80;;;;;;5027203;28;20443;-89
2022/07/06 00:14:19;;;;;;;1.10;0.77;;;21.30;90.80;;;;;;5029264;28;20486;-90
2022/07/06 00:16:46;;;;;;;1.10;1.00;;;21.30;90.90;;;;;;5024040;28;20204;-90
2022/07/06 00:19:13;;;;;;;2.53;0.90;;;21.30;91.00;;;;;;5021360;28;20455;-87
2022/07/06 00:21:40;;;;;;;1.17;0.90;;;21.30;91.40;;;;;;5029340;28;20462;-89
2022/07/06 00:24:08;;;;;;;4.23;1.13;;;21.30;91.10;;;;;;5017504;28;20459;-89
2022/07/06 00:26:35;;;;;;;3.10;1.23;;;21.20;91.10;;;;;;5023190;28;20969;-89
2022/07/06 00:29:02;;;;;;;2.05;0.90;;;21.20;91.10;;;;;;5022441;28;20461;-90
2022/07/06 00:31:28;;;;;;;5.00;3.37;;;21.20;91.20;;;;;;5017462;28;20197;-89
2022/07/06 00:33:55;;;;;;;1.10;0.90;;;21.20;91.30;;;;;;5029575;28;21004;-88
2022/07/06 00:36:22;;;;;;;1.20;0.90;;;21.10;91.20;;;;;;5030966;28;20451;-90
2022/07/06 00:38:49;;;;;;;2.03;1.20;;;21.10;91.30;;;;;;5027312;28;20454;-89
2022/07/06 00:41:17;;;;;;;4.32;1.10;;;21.10;91.40;;;;;;5027385;28;20453;-90
2022/07/06 00:43:51;;;;;;;1.43;0.97;;;21.10;91.50;;;;;;5030999;28;20196;-89
2022/07/06 00:46:18;;;;;;;2.10;0.90;;;21.10;91.60;;;;;;5018851;28;20485;-89
2022/07/06 00:48:45;;;;;;;1.77;1.10;;;21.00;91.60;;;;;;5016254;28;20474;-88
2022/07/06 00:51:13;;;;;;;1.40;1.00;;;21.00;91.80;;;;;;5030498;28;20200;-91
2022/07/06 00:53:40;;;;;;;4.28;1.23;;;21.00;91.80;;;;;;5018384;28;20603;-89
2022/07/06 00:56:07;;;;;;;1.83;0.88;;;21.00;91.90;;;;;;5033608;28;20198;-87
2022/07/06 00:58:36;;;;;;;1.80;1.00;;;21.00;91.80;;;;;;5031755;28;20204;-89
2022/07/06 01:01:03;;;;;;;1.63;1.05;;;21.00;92.00;;;;;;5033038;28;20198;-89
2022/07/06 01:03:29;;;;;;;1.85;1.10;;;21.00;92.00;;;;;;5035021;28;20222;-89
2022/07/06 01:05:56;;;;;;;1.20;0.93;;;20.90;91.90;;;;;;5028325;28;20211;-90
2022/07/06 01:08:24;;;;;;;2.00;0.90;;;20.90;91.90;;;;;;5029537;28;20199;-90
2022/07/06 01:10:52;;;;;;;1.60;1.00;;;20.90;92.00;;;;;;5026203;28;20203;-88
2022/07/06 01:13:19;;;;;;;1.60;1.10;;;20.90;92.00;;;;;;5020182;28;20208;-90
2022/07/06 01:15:47;;;;;;;1.20;1.00;;;20.90;92.00;;;;;;5029471;28;20454;-90
2022/07/06 01:18:15;;;;;;;2.72;1.25;;;20.90;92.00;;;;;;5025584;28;20201;-91
2022/07/06 01:20:43;;;;;;;2.33;1.10;;;20.90;92.10;;;;;;5025476;28;20211;-91
2022/07/06 01:23:10;;;;;;;1.40;1.20;;;20.80;92.10;;;;;;5020866;28;20830;-89
2022/07/06 01:25:37;;;;;;;1.10;1.00;;;20.80;92.20;;;;;;5028806;28;20218;-89
2022/07/06 01:28:04;;;;;;;1.20;0.82;;;20.80;92.20;;;;;;5024145;28;20454;-90
2022/07/06 01:30:31;;;;;;;1.75;1.10;;;20.80;92.30;;;;;;5029707;28;20228;-89
2022/07/06 01:32:57;;;;;;;1.20;1.00;;;20.80;92.30;;;;;;5033589;28;20200;-89
2022/07/06 01:35:27;;;;;;;2.38;1.30;;;20.80;92.40;;;;;;5025139;28;20686;-89
2022/07/06 01:37:55;;;;;;;1.63;0.80;;;20.70;92.40;;;;;;5025227;28;20202;-92
2022/07/06 01:40:22;;;;;;;1.42;1.20;;;20.70;92.40;;;;;;5030665;28;20203;-88
2022/07/06 01:42:48;;;;;;;2.20;1.00;;;20.70;92.50;;;;;;5034032;28;20199;-89
2022/07/06 01:45:15;;;;;;;1.43;1.00;;;20.70;92.50;;;;;;5019360;28;20674;-90
2022/07/06 01:47:42;;;;;;;2.35;1.35;;;20.60;92.50;;;;;;5022755;28;20469;-90
2022/07/06 01:50:09;;;;;;;2.28;0.90;;;20.60;92.50;;;;;;5027230;28;20536;-90
2022/07/06 01:52:36;;;;;;;1.50;1.30;;;20.60;92.60;;;;;;5024875;28;20199;-89
2022/07/06 01:55:05;;;;;;;1.40;1.00;;;20.60;92.60;;;;;;5029092;28;20218;-88
2022/07/06 01:57:32;;;;;;;1.20;1.10;;;20.50;92.60;;;;;;5031916;28;20199;-89
2022/07/06 01:59:59;;;;;;;1.52;1.00;;;20.50;92.60;;;;;;5024241;28;20206;-89
2022/07/06 02:02:25;;;;;;;1.83;1.05;;;20.50;92.70;;;;;;5028617;28;20218;-88
2022/07/06 02:04:52;;;;;;;1.30;1.00;;;20.50;92.70;;;;;;5019258;28;20203;-89
2022/07/06 02:07:19;;;;;;;1.20;1.10;;;20.50;92.80;;;;;;5028184;28;20204;-83
2022/07/06 02:09:45;;;;;;;1.08;0.80;;;20.50;92.90;;;;;;5024760;28;20602;-83
2022/07/06 02:12:13;;;;;;;3.72;1.13;;;20.40;92.90;;;;;;5021752;28;20210;-83
2022/07/06 02:14:40;;;;;;;1.45;0.90;;;20.40;92.90;;;;;;5015353;28;20564;-83
2022/07/06 02:17:07;;;;;;;2.88;1.02;;;20.40;92.90;;;;;;5029330;28;20215;-83
2022/07/06 02:19:34;;;;;;;2.70;1.10;;;20.40;93.00;;;;;;5026055;28;20203;-83
2022/07/06 02:22:00;;;;;;;1.63;1.30;;;20.30;92.90;;;;;;5021447;28;20651;-83
2022/07/06 02:24:27;;;;;;;2.20;1.20;;;20.30;93.00;;;;;;5023142;28;20214;-83
2022/07/06 02:26:54;;;;;;;1.20;1.00;;;20.30;93.00;;;;;;5032204;28;20210;-82
2022/07/06 02:29:22;;;;;;;1.10;0.90;;;20.30;93.10;;;;;;5024677;28;20625;-82
2022/07/06 02:31:49;;;;;;;1.48;1.30;;;20.30;93.10;;;;;;5028641;28;20645;-82
2022/07/06 02:34:16;;;;;;;1.20;0.90;;;20.30;93.10;;;;;;5030350;28;20305;-82
2022/07/06 02:36:42;;;;;;;1.35;1.02;;;20.20;93.20;;;;;;5026146;28;20661;-82
2022/07/06 02:39:09;;;;;;;1.30;0.90;;;20.20;93.20;;;;;;5022861;28;20201;-83
2022/07/06 02:41:36;;;;;;;2.95;1.50;;;20.20;93.20;;;;;;5027561;28;20237;-85
2022/07/06 02:44:03;;;;;;;1.38;0.82;;;20.20;93.10;;;;;;5025168;28;20203;-83
2022/07/06 02:46:31;;;;;;;3.92;1.73;;;20.10;93.10;;;;;;5028338;28;20677;-84
2022/07/06 02:48:58;;;;;;;1.80;1.10;;;20.10;93.10;;;;;;5026772;28;20258;-85
2022/07/06 02:51:24;;;;;;;1.30;0.90;;;20.10;93.20;;;;;;5021623;28;20700;-83
2022/07/06 02:53:51;;;;;;;2.55;1.27;;;20.10;93.30;;;;;;5021398;28;20204;-83
2022/07/06 02:56:18;;;;;;;2.97;1.08;;;20.10;93.20;;;;;;5028223;28;20574;-85
2022/07/06 02:58:44;;;;;;;2.45;1.40;;;20.10;93.30;;;;;;5018464;28;20203;-84
2022/07/06 03:01:11;;;;;;;1.25;1.10;;;20.00;93.30;;;;;;5023832;28;20225;-84
2022/07/06 03:03:39;;;;;;;1.63;1.00;;;20.00;93.30;;;;;;5026469;28;20203;-84
2022/07/06 03:06:06;;;;;;;1.90;0.90;;;20.00;93.40;;;;;;5031960;28;20195;-84
2022/07/06 03:08:34;;;;;;;2.38;1.30;;;20.00;93.40;;;;;;5024320;28;20210;-83
2022/07/06 03:11:01;;;;;;;2.28;1.00;;;20.00;93.40;;;;;;5022125;28;20211;-84
2022/07/06 03:13:28;;;;;;;1.00;0.90;;;19.90;93.40;;;;;;5026035;28;20287;-84
2022/07/06 03:15:55;;;;;;;1.10;0.90;;;20.00;93.50;;;;;;5026135;28;20223;-83
2022/07/06 03:18:21;;;;;;;1.25;1.00;;;19.90;93.50;;;;;;5025497;28;20191;-83
2022/07/06 03:20:49;;;;;;;1.20;0.93;;;19.90;93.60;;;;;;5027759;28;20208;-84
2022/07/06 03:23:16;;;;;;;1.83;1.10;;;19.90;93.50;;;;;;5029103;28;20216;-84
2022/07/06 03:25:43;;;;;;;1.80;1.10;;;19.90;93.50;;;;;;5030799;28;20197;-84
2022/07/06 03:28:10;;;;;;;1.35;1.15;;;19.80;93.60;;;;;;5018169;28;20198;-86
2022/07/06 03:30:36;;;;;;;2.05;1.30;;;19.90;93.60;;;;;;5022720;28;20718;-86
2022/07/06 03:33:03;;;;;;;1.30;1.10;;;19.80;93.60;;;;;;5018409;28;20202;-84
2022/07/06 03:35:30;;;;;;;1.50;1.10;;;19.80;93.70;;;;;;5021303;28;20272;-85
2022/07/06 03:37:58;;;;;;;1.60;1.00;;;19.80;93.70;;;;;;5023807;28;20217;-84
2022/07/06 03:40:25;;;;;;;1.50;1.20;;;19.80;93.70;;;;;;5028296;28;20563;-84
2022/07/06 03:42:52;;;;;;;1.98;1.10;;;19.70;93.70;;;;;;5027818;28;20210;-85
2022/07/06 03:45:18;;;;;;;1.25;1.08;;;19.70;93.80;;;;;;5019273;28;20200;-84
2022/07/06 03:47:45;;;;;;;1.25;1.15;;;19.70;93.80;;;;;;5029763;28;20217;-84
2022/07/06 03:50:12;;;;;;;1.20;1.05;;;19.70;93.90;;;;;;5023540;28;20200;-84
2022/07/06 03:52:39;;;;;;;1.48;1.10;;;19.70;93.90;;;;;;5021548;28;20194;-84
2022/07/06 03:55:10;;;;;;;1.95;1.38;;;19.70;93.90;;;;;;5023466;28;20274;-83
2022/07/06 03:57:37;;;;;;;1.60;1.20;;;19.60;93.90;;;;;;5031302;28;20251;-85
2022/07/06 04:00:05;;;;;;;1.33;1.13;;;19.60;94.00;;;;;;5018870;28;20283;-82
2022/07/06 04:02:32;;;;;;;2.35;1.50;;;19.60;94.00;;;;;;5022236;28;20218;-82
2022/07/06 04:04:59;;;;;;;1.40;1.00;;;19.60;94.00;;;;;;5028479;28;20189;-83
2022/07/06 04:07:26;;;;;;;2.00;1.50;;;19.60;94.00;;;;;;5026366;28;20205;-84
2022/07/06 04:09:53;;;;;;;1.25;1.15;;;19.60;94.10;;;;;;5027490;28;20669;-83
2022/07/06 04:12:21;;;;;;;2.28;1.25;;;19.50;94.00;;;;;;5028161;28;20188;-84
2022/07/06 04:14:48;;;;;;;1.90;1.30;;;19.50;94.10;;;;;;5028239;28;20211;-83
2022/07/06 04:19:59;;;;;;;1.70;1.33;;;19.50;94.10;;;;;;5024694;28;20210;-82
2022/07/06 04:22:26;;;;;;;2.20;1.20;;;19.50;94.20;;;;;;5026851;28;20228;-83
2022/07/06 04:24:52;;;;;;;1.60;1.45;;;19.50;94.20;;;;;;5027938;28;20198;-84
2022/07/06 04:27:20;;;;;;;2.97;1.10;;;19.50;94.20;;;;;;5031795;28;20193;-84
2022/07/06 04:29:47;;;;;;;1.45;1.17;;;19.50;94.30;;;;;;5022254;28;20567;-83
2022/07/06 04:32:14;;;;;;;1.75;1.33;;;19.50;94.30;;;;;;5023938;28;20207;-83
2022/07/06 04:34:41;;;;;;;1.65;1.27;;;19.40;94.30;;;;;;5027425;28;20225;-84
2022/07/06 04:37:07;;;;;;;1.95;1.65;;;19.40;94.30;;;;;;5031282;28;20202;-83
2022/07/06 04:39:34;;;;;;;2.78;1.52;;;19.40;94.40;;;;;;5029100;28;20616;-83
2022/07/06 04:42:01;;;;;;;1.10;1.00;;;19.40;94.40;;;;;;5032993;28;20197;-83
2022/07/06 04:44:29;;;;;;;2.10;1.10;;;19.40;94.40;;;;;;5024146;28;20691;-83
2022/07/06 04:46:55;;;;;;;2.10;1.63;;;19.40;94.40;;;;;;5027843;28;20205;-83
2022/07/06 04:49:22;;;;;;;1.17;1.08;;;19.40;94.80;;;;;;5032307;28;20590;-83
2022/07/06 04:51:49;;;;;;;1.40;1.30;;;19.40;94.40;;;;;;5034294;28;20659;-83
2022/07/06 04:54:15;;;;;;;1.65;1.30;;;19.40;94.50;;;;;;5022155;28;20202;-82
2022/07/06 04:56:42;;;;;;;1.45;1.35;;;19.40;94.50;;;;;;5025726;28;20571;-84
2022/07/06 04:59:09;;;;;;;2.25;1.20;;;19.30;94.50;;;;;;5029790;28;20657;-85
2022/07/06 05:01:37;;;;;;;2.13;1.40;;;19.30;94.60;;;;;;5030528;28;20223;-82
2022/07/06 05:04:04;;;;;;;2.42;2.25;;;19.40;94.70;;;;;;5030363;28;20216;-83
2022/07/06 05:06:31;;;;;;;1.85;1.27;;;19.40;94.70;;;;;;5022838;28;20206;-86
2022/07/06 05:08:59;;;;;;;1.85;1.75;;;19.30;94.70;;;;;;5029125;28;20563;-85
2022/07/06 05:11:26;;;;;;;4.95;2.72;;;19.30;94.70;;;;;;5027828;28;20207;-85
2022/07/06 05:13:54;;;;;;;5.28;5.07;;;19.30;94.80;;;;;;5023133;28;20197;-85
2022/07/06 05:16:21;;;;;;;16.73;16.20;;;19.30;94.90;;;;;;5024962;28;20226;-84
2022/07/06 05:18:49;;;;;;;6.13;5.78;;;19.30;95.00;;;;;;5019172;28;20217;-84
2022/07/06 05:21:16;;;;;;;3.10;2.90;;;19.30;95.00;;;;;;5022120;28;20220;-85
2022/07/06 05:23:43;;;;;;;28.27;27.38;;;19.20;94.90;;;;;;5025972;28;20204;-85
2022/07/06 05:26:09;;;;;;;3.40;3.20;;;19.20;95.00;;;;;;5033763;28;20204;-84
2022/07/06 05:28:36;;;;;;;5.45;5.15;;;19.20;95.40;;;;;;5020697;28;20232;-85
2022/07/06 05:31:03;;;;;;;54.83;52.97;;;19.20;95.10;;;;;;5020325;28;20200;-84
2022/07/06 05:33:30;;;;;;;3.10;2.90;;;19.20;95.20;;;;;;5027668;28;20202;-83
2022/07/06 05:35:58;;;;;;;2.90;2.67;;;19.30;95.20;;;;;;5032827;28;20226;-84
2022/07/06 05:38:25;;;;;;;9.10;8.70;;;19.40;95.10;;;;;;5018607;28;20203;-83
2022/07/06 05:40:52;;;;;;;4.13;2.85;;;19.50;94.90;;;;;;5023895;28;20268;-83
2022/07/06 05:43:19;;;;;;;1.73;1.63;;;19.80;94.40;;;;;;5028763;28;20210;-85
2022/07/06 05:45:45;;;;;;;1.58;1.45;;;20.10;94.00;;;;;;5021789;28;20205;-85
2022/07/06 05:50:58;;;;;;;8.75;8.38;;;20.30;93.50;;;;;;5023129;28;20318;-84
2022/07/06 05:53:24;;;;;;;1.30;1.20;;;20.20;93.50;;;;;;5023504;28;20206;-85
2022/07/06 05:55:51;;;;;;;39.22;37.35;;;20.20;93.60;;;;;;5026403;28;20226;-84
2022/07/06 05:58:18;;;;;;;3.63;1.42;;;20.10;93.70;;;;;;5029515;28;20567;-85
2022/07/06 06:00:45;;;;;;;2.05;1.80;;;20.00;93.80;;;;;;5027872;28;20207;-82
2022/07/06 06:03:12;;;;;;;1.83;1.45;;;20.00;93.90;;;;;;5023210;28;20221;-84
2022/07/06 06:05:38;;;;;;;6.05;1.58;;;19.90;94.00;;;;;;5028006;28;20567;-84
2022/07/06 06:08:06;;;;;;;4.72;1.85;;;19.90;94.10;;;;;;5028417;28;20203;-83
2022/07/06 06:10:33;;;;;;;1.52;1.42;;;19.90;94.20;;;;;;5021830;28;20255;-83
2022/07/06 06:13:00;;;;;;;6.40;1.52;;;19.90;94.20;;;;;;5031675;28;20203;-84
2022/07/06 06:15:27;;;;;;;2.13;1.20;;;19.80;94.30;;;;;;5024629;28;20221;-84
2022/07/06 06:17:54;;;;;;;3.25;1.70;;;19.80;94.80;;;;;;5026709;28;20209;-83
2022/07/06 06:20:20;;;;;;;3.70;1.80;;;19.80;94.40;;;;;;5026504;28;20212;-84
2022/07/06 06:22:48;;;;;;;1.77;1.27;;;19.90;94.60;;;;;;5029450;28;20199;-83
2022/07/06 06:25:18;;;;;;;2.42;2.22;;;19.80;94.60;;;;;;5033239;28;20576;-83
2022/07/06 06:27:44;;;;;;;4.80;1.88;;;19.80;94.70;;;;;;5042790;28;20184;-83
2022/07/06 06:30:13;;;;;;;2.50;1.10;;;19.80;94.60;;;;;;5036790;28;20677;-82
2022/07/06 06:32:40;;;;;;;1.33;1.23;;;19.80;94.70;;;;;;5023016;28;20203;-84
2022/07/06 06:35:08;;;;;;;1.67;1.15;;;19.80;94.80;;;;;;5041878;28;20223;-83
2022/07/06 06:37:35;;;;;;;1.73;1.42;;;19.80;94.90;;;;;;5030023;28;20251;-83
2022/07/06 06:40:01;;;;;;;4.28;3.97;;;19.70;95.10;;;;;;5027266;28;20202;-84
2022/07/06 06:42:29;;;;;;;6.43;6.13;;;19.70;95.20;;;;;;5033401;28;20206;-84
2022/07/06 06:44:56;;;;;;;1.92;1.73;;;19.70;95.20;;;;;;5032357;28;20195;-83
2022/07/06 06:47:23;;;;;;;2.72;2.53;;;19.70;95.20;;;;;;5029910;28;20206;-84
2022/07/06 06:49:49;;;;;;;8.20;7.90;;;19.80;95.20;;;;;;5032953;28;20201;-82
2022/07/06 06:52:16;;;;;;;3.28;2.95;;;19.80;95.00;;;;;;5032451;28;20199;-83
2022/07/06 06:54:43;;;;;;;1.30;1.10;;;19.80;94.90;;;;;;5030381;28;20198;-84
2022/07/06 06:57:10;;;;;;;3.08;2.80;;;19.80;94.90;;;;;;5034230;28;20244;-85
2022/07/06 06:59:38;;;;;;;1.83;1.20;;;19.80;94.90;;;;;;5028813;28;20200;-85
2022/07/06 07:02:04;;;;;;;2.47;1.50;;;19.80;94.90;;;;;;5025630;28;20216;-84
2022/07/06 07:04:31;;;;;;;10.82;10.48;;;19.80;94.90;;;;;;5025555;28;20677;-84
2022/07/06 07:06:58;;;;;;;1.65;1.10;;;19.80;94.80;;;;;;5031035;28;20201;-86
2022/07/06 07:09:25;;;;;;;3.63;3.42;;;19.80;94.80;;;;;;5024555;28;20195;-85
2022/07/06 07:11:51;;;;;;;1.90;1.65;;;19.80;94.80;;;;;;5025363;28;20566;-84
2022/07/06 07:14:18;;;;;;;1.77;1.23;;;19.90;94.80;;;;;;5025993;28;20208;-85
2022/07/06 07:16:46;;;;;;;1.23;1.13;;;19.90;94.80;;;;;;5025337;28;20225;-84
2022/07/06 07:19:13;;;;;;;2.47;2.35;;;20.00;94.70;;;;;;5029603;28;20578;-83
2022/07/06 07:21:39;;;;;;;2.65;1.70;;;20.00;94.60;;;;;;5031442;28;20225;-82
2022/07/06 07:24:08;;;;;;;1.00;0.90;;;20.10;94.50;;;;;;5015728;28;20216;-81
2022/07/06 07:26:35;;;;;;;1.33;1.23;;;20.20;94.30;;;;;;5019901;28;20286;-85
2022/07/06 07:29:01;;;;;;;2.90;1.90;;;20.20;94.20;;;;;;5021636;28;20206;-81
2022/07/06 07:31:28;;;;;;;1.50;1.33;;;20.30;94.10;;;;;;5024895;28;20200;-81
2022/07/06 07:33:58;;;;;;;1.20;0.90;;;20.30;94.00;;;;;;5024201;28;20658;-83
2022/07/06 07:36:25;;;;;;;1.15;0.90;;;20.30;93.90;;;;;;5025407;28;20270;-86
2022/07/06 07:38:52;;;;;;;3.05;0.88;;;20.40;94.00;;;;;;5016952;28;20200;-87
2022/07/06 07:41:19;;;;;;;1.50;1.00;;;20.40;93.80;;;;;;5023232;28;20195;-85
2022/07/06 07:43:45;;;;;;;0.95;0.75;;;20.50;93.70;;;;;;5016065;28;20210;-86
2022/07/06 07:46:12;;;;;;;2.45;1.50;;;20.50;93.60;;;;;;5018454;28;20202;-86
2022/07/06 07:48:39;;;;;;;1.60;0.95;;;20.60;93.60;;;;;;5026610;28;20556;-88
2022/07/06 07:51:07;;;;;;;1.38;0.80;;;20.70;93.50;;;;;;5016636;28;20200;-85
2022/07/06 07:53:34;;;;;;;1.10;0.90;;;20.70;93.40;;;;;;5020458;28;20284;-85
2022/07/06 07:56:01;;;;;;;1.90;1.55;;;20.70;93.20;;;;;;5025831;28;20219;-86
2022/07/06 07:58:28;;;;;;;1.48;0.95;;;20.80;93.20;;;;;;5023437;28;20203;-87
2022/07/06 08:00:56;;;;;;;1.15;0.90;;;20.80;93.20;;;;;;5023654;28;20206;-86
2022/07/06 08:03:22;;;;;;;1.33;0.80;;;20.80;93.20;;;;;;5025884;28;20288;-86
2022/07/06 08:05:50;;;;;;;1.23;1.05;;;20.80;93.10;;;;;;5024078;28;20214;-85
2022/07/06 08:08:18;;;;;;;1.83;1.30;;;20.70;93.10;;;;;;5026119;28;20199;-87
2022/07/06 08:10:45;;;;;;;1.38;1.13;;;20.70;93.20;;;;;;5028679;28;20450;-86
2022/07/06 08:13:14;;;;;;;1.52;0.90;;;20.70;93.30;;;;;;5013943;28;20326;-86
2022/07/06 08:15:41;;;;;;;1.20;1.10;;;20.60;93.30;;;;;;5020444;28;20693;-86
2022/07/06 08:18:09;;;;;;;1.40;1.00;;;20.60;93.50;;;;;;5024650;28;20205;-86
2022/07/06 08:20:35;;;;;;;2.17;1.05;;;20.50;93.50;;;;;;5025358;28;20287;-85
2022/07/06 08:23:02;;;;;;;1.90;1.20;;;20.50;93.60;;;;;;5026258;28;20593;-86
2022/07/06 08:25:31;;;;;;;1.45;1.15;;;20.50;93.80;;;;;;5016025;28;20208;-84
2022/07/06 08:27:57;;;;;;;2.05;0.90;;;20.40;93.80;;;;;;5015654;28;20203;-85
2022/07/06 08:30:24;;;;;;;1.50;0.98;;;20.40;93.90;;;;;;5023164;28;20865;-85
2022/07/06 08:32:51;;;;;;;1.30;1.20;;;20.30;94.00;;;;;;5028610;28;20206;-86
2022/07/06 08:35:18;;;;;;;2.83;1.10;;;20.30;94.00;;;;;;5027069;28;20211;-85
2022/07/06 08:37:45;;;;;;;1.20;1.10;;;20.30;94.10;;;;;;5022255;28;20220;-87
2022/07/06 08:40:12;;;;;;;1.10;0.80;;;20.40;94.10;;;;;;5021472;28;20210;-86
2022/07/06 08:42:40;;;;;;;1.45;1.17;;;20.40;94.10;;;;;;5022380;28;20204;-86
2022/07/06 08:45:08;;;;;;;1.63;1.20;;;20.40;94.10;;;;;;5014607;28;20667;-85
2022/07/06 08:47:37;;;;;;;1.48;1.10;;;20.40;94.00;;;;;;5027451;28;20195;-86
2022/07/06 08:50:05;;;;;;;1.55;1.00;;;20.50;94.00;;;;;;5027482;28;20188;-85
2022/07/06 08:52:32;;;;;;;3.25;1.00;;;20.50;94.00;;;;;;5015138;28;20211;-84
2022/07/06 08:55:00;;;;;;;1.30;0.98;;;20.50;93.90;;;;;;5023574;28;20674;-84
2022/07/06 08:57:27;;;;;;;1.52;0.90;;;20.50;93.90;;;;;;5026076;28;20250;-85
2022/07/06 08:59:58;;;;;;;3.25;1.05;;;20.50;93.80;;;;;;5026350;28;20635;-92
2022/07/06 09:02:26;;;;;;;2.83;0.90;;;20.60;93.80;;;;;;5021364;28;20705;-85
2022/07/06 09:04:56;;;;;;;3.95;1.00;;;20.60;93.80;;;;;;5020785;28;20192;-86
2022/07/06 09:07:24;;;;;;;1.67;1.10;;;20.60;93.80;;;;;;5019687;28;20195;-86
2022/07/06 09:09:53;;;;;;;2.38;1.55;;;20.60;93.80;;;;;;5021446;28;20667;-86
2022/07/06 09:12:20;;;;;;;4.18;1.25;;;20.60;93.80;;;;;;5021805;28;20192;-85
2022/07/06 09:14:47;;;;;;;1.50;1.00;;;20.60;93.80;;;;;;5022522;28;20726;-87
2022/07/06 09:17:15;;;;;;;2.22;1.00;;;20.60;93.80;;;;;;5018875;28;20223;-86
2022/07/06 09:19:42;;;;;;;1.45;0.90;;;20.60;93.80;;;;;;5022212;28;20207;-86
2022/07/06 09:22:09;;;;;;;1.77;1.63;;;20.60;93.80;;;;;;5014530;28;20947;-87
2022/07/06 09:24:42;;;;;;;2.30;0.90;;;20.60;93.70;;;;;;5020713;28;20199;-87
2022/07/06 09:27:17;;;;;;;4.38;1.23;;;20.60;93.70;;;;;;5024577;28;20204;-86
2022/07/06 09:29:44;;;;;;;1.52;0.93;;;20.60;93.70;;;;;;5024784;28;20226;-87
2022/07/06 09:32:10;;;;;;;1.45;0.90;;;20.60;93.70;;;;;;5021805;28;20212;-87
2022/07/06 09:34:46;;;;;;;1.40;1.00;;;20.60;93.70;;;;;;5024813;28;20196;-86
2022/07/06 09:37:14;;;;;;;4.50;1.40;;;20.70;93.70;;;;;;5023704;28;20862;-86
2022/07/06 09:39:41;;;;;;;1.45;1.35;;;20.70;93.60;;;;;;5024458;28;20193;-87
2022/07/06 09:42:09;;;;;;;1.52;1.02;;;20.80;91.10;;;;;;5024645;28;20211;-87
2022/07/06 09:44:37;;;;;;;1.53;0.93;;;21.00;91.20;;;;;;5028527;28;20203;-84
2022/07/06 09:47:05;;;;;;;2.10;1.00;;;21.00;91.50;;;;;;5027265;28;20488;-83
2022/07/06 09:49:32;;;;;;;1.65;1.00;;;21.10;91.90;;;;;;5024661;28;20201;-85
2022/07/06 09:52:03;;;;;;;2.65;0.95;;;21.20;91.90;;;;;;5027680;28;20207;-83
2022/07/06 09:54:30;;;;;;;0.90;0.70;;;21.20;91.70;;;;;;5025777;28;20703;-84
2022/07/06 09:56:58;;;;;;;2.57;0.93;;;21.30;91.50;;;;;;5037000;28;20473;-83
2022/07/06 09:59:26;;;;;;;1.30;0.90;;;21.30;91.40;;;;;;5023123;28;21004;-84
2022/07/06 10:01:54;;;;;;;2.00;0.90;;;21.30;91.30;;;;;;5026406;28;20477;-84
2022/07/06 10:04:21;;;;;;;1.30;0.77;;;21.30;91.20;;;;;;5025379;28;20470;-84
2022/07/06 10:06:49;;;;;;;1.20;0.80;;;21.30;91.40;;;;;;5031558;28;20464;-84
2022/07/06 10:09:19;;;;;;;2.13;1.37;;;21.30;91.30;;;;;;5022699;28;20486;-84
2022/07/06 10:11:50;;;;;;;1.33;0.87;;;21.40;91.00;;;;;;5028560;28;20458;-84
2022/07/06 10:14:19;;;;;;;1.23;0.83;;;21.40;91.40;;;;;;5025422;28;20462;-85
2022/07/06 10:16:47;;;;;;;1.33;1.00;;;21.40;91.20;;;;;;5026982;28;20876;-85
2022/07/06 10:19:15;;;;;;;1.40;0.90;;;21.50;91.20;;;;;;5019224;28;20840;-84
2022/07/06 10:21:42;;;;;;;0.93;0.70;;;21.50;91.00;;;;;;5022695;28;21223;-84
2022/07/06 10:24:12;;;;;;;1.50;1.00;;;21.60;90.50;;;;;;5022677;28;20469;-82
2022/07/06 10:26:42;;;;;;;1.43;0.90;;;21.60;90.80;;;;;;5026908;28;20875;-83
2022/07/06 10:29:09;;;;;;;1.13;0.70;;;21.70;89.80;;;;;;5031862;28;20504;-86
2022/07/06 10:31:40;;;;;;;1.53;1.43;;;21.70;90.90;;;;;;5028150;28;20538;-84
2022/07/06 10:34:09;;;;;;;1.83;1.73;;;21.60;90.50;;;;;;5025538;28;20848;-84
2022/07/06 10:36:39;;;;;;;4.77;4.57;;;21.60;90.50;;;;;;5029667;28;20483;-85
2022/07/06 10:41:02;;;;;;;1.47;0.87;;;21.60;90.50;;;;;;5019561;28;20489;-83
2022/07/06 10:41:55;;;;;;;2.35;0.80;;;21.50;90.40;;;;;;5031011;28;20660;-85
2022/07/06 10:44:24;;;;;;;1.90;1.80;;;21.40;90.70;;;;;;5029786;28;20223;-84
2022/07/06 10:46:53;;;;;;;1.50;1.00;;;21.40;90.50;;;;;;5026362;28;20820;-84
2022/07/06 10:49:20;;;;;;;1.37;1.27;;;21.30;90.90;;;;;;5026117;28;20545;-83
2022/07/06 10:51:48;;;;;;;2.03;0.73;;;21.30;90.90;;;;;;5023946;28;21004;-84
2022/07/06 10:54:17;;;;;;;1.77;1.67;;;21.30;90.60;;;;;;5020375;28;21049;-83
2022/07/06 10:56:45;;;;;;;2.10;0.93;;;21.30;91.00;;;;;;5020125;28;20598;-84
2022/07/06 10:59:14;;;;;;;1.20;1.00;;;21.40;91.20;;;;;;5018178;28;21005;-84
2022/07/06 11:01:43;;;;;;;1.20;1.10;;;21.40;90.90;;;;;;5017816;28;20925;-84
2022/07/06 11:04:10;;;;;;;1.00;0.70;;;21.40;90.60;;;;;;5025772;28;21072;-84
2022/07/06 11:06:40;;;;;;;1.13;0.77;;;21.40;90.50;;;;;;5026352;28;20458;-83
2022/07/06 11:09:09;;;;;;;1.90;0.80;;;21.40;90.70;;;;;;5024011;28;20949;-83
2022/07/06 11:11:43;;;;;;;1.77;0.70;;;21.40;90.40;;;;;;5024564;28;20454;-84
2022/07/06 11:14:11;;;;;;;1.17;0.70;;;21.50;90.90;;;;;;5015561;28;20524;-84
2022/07/06 11:16:41;;;;;;;1.77;0.70;;;21.50;90.90;;;;;;5027930;28;20492;-83
2022/07/06 11:19:10;;;;;;;4.10;0.70;;;21.50;90.70;;;;;;5027242;28;20463;-83
2022/07/06 11:21:45;;;;;;;1.20;0.70;;;21.60;91.00;;;;;;5022560;28;20451;-84
2022/07/06 11:24:14;;;;;;;7.87;7.57;;;21.60;90.30;;;;;;5021781;28;21087;-85
2022/07/06 11:26:43;;;;;;;1.50;0.80;;;21.70;90.50;;;;;;5024316;28;20451;-85
2022/07/06 11:29:12;;;;;;;2.20;0.77;;;21.70;89.60;;;;;;5027120;28;20478;-85
2022/07/06 11:31:42;;;;;;;2.23;0.83;;;21.60;90.10;;;;;;5027035;28;21157;-85
2022/07/06 11:34:10;;;;;;;1.53;0.80;;;21.60;89.50;;;;;;5025164;28;20481;-82
2022/07/06 11:36:38;;;;;;;0.90;0.70;;;21.60;89.40;;;;;;5023036;28;20438;-84
2022/07/06 11:39:06;;;;;;;1.00;0.70;;;21.60;90.10;;;;;;5018133;28;20942;-85
2022/07/06 11:41:32;;;;;;;1.30;0.70;;;21.50;90.10;;;;;;5023548;28;20497;-84
2022/07/06 11:43:59;;;;;;;1.10;0.80;;;21.50;89.40;;;;;;5031670;28;20470;-83
2022/07/06 11:46:28;;;;;;;1.00;0.77;;;21.50;90.40;;;;;;5024682;28;20466;-84
2022/07/06 11:48:57;;;;;;;1.00;0.80;;;21.50;90.40;;;;;;5024730;28;20482;-84
2022/07/06 11:51:26;;;;;;;2.27;2.07;;;21.50;90.60;;;;;;5022526;28;20461;-82
2022/07/06 11:53:54;;;;;;;2.00;1.00;;;21.40;90.40;;;;;;5025993;28;20439;-83
2022/07/06 11:56:25;;;;;;;1.00;0.73;;;21.40;90.30;;;;;;5023412;28;20882;-83
2022/07/06 11:58:53;;;;;;;1.07;0.90;;;21.50;90.70;;;;;;5015598;28;21109;-83
2022/07/06 12:01:20;;;;;;;1.83;0.80;;;21.40;90.50;;;;;;5020968;28;20451;-85
2022/07/06 12:03:47;;;;;;;1.67;1.07;;;21.50;90.80;;;;;;5020255;28;20459;-82
2022/07/06 12:06:17;;;;;;;1.10;0.83;;;21.50;90.50;;;;;;5024851;28;20803;-84
2022/07/06 12:08:46;;;;;;;1.20;0.63;;;21.50;90.50;;;;;;5017318;28;20459;-83
2022/07/06 12:11:19;;;;;;;0.90;0.60;;;21.50;90.70;;;;;;5021202;28;20462;-84
2022/07/06 12:13:46;;;;;;;0.93;0.70;;;21.40;90.70;;;;;;5019312;28;20458;-82
2022/07/06 12:16:15;;;;;;;1.50;1.03;;;21.50;90.80;;;;;;5019971;28;20474;-84
2022/07/06 12:18:43;;;;;;;0.90;0.60;;;21.50;90.90;;;;;;5018954;28;20486;-85
2022/07/06 12:21:12;;;;;;;1.03;0.60;;;21.50;90.80;;;;;;5024006;28;20451;-82
2022/07/06 12:23:42;;;;;;;1.23;0.73;;;21.50;90.70;;;;;;5027709;28;20451;-83
2022/07/06 12:26:09;;;;;;;1.90;0.97;;;21.60;90.80;;;;;;5031469;28;20450;-86
2022/07/06 12:28:36;;;;;;;1.70;1.00;;;21.60;90.70;;;;;;5030887;28;20465;-82
2022/07/06 12:31:03;;;;;;;1.10;0.70;;;21.60;90.40;;;;;;5016414;28;20470;-82
2022/07/06 12:33:30;;;;;;;2.30;0.80;;;21.60;90.50;;;;;;5028071;28;20987;-83
2022/07/06 12:35:57;;;;;;;1.00;0.83;;;21.70;90.00;;;;;;5025869;28;20469;-83
2022/07/06 12:38:25;;;;;;;2.80;0.70;;;21.70;89.80;;;;;;5019371;28;20487;-85
2022/07/06 12:40:53;;;;;;;1.10;0.80;;;21.70;90.30;;;;;;5022062;28;20454;-84
2022/07/06 12:43:39;;;;;;;0.90;0.67;;;21.70;90.50;;;;;;5029232;28;20810;-84
2022/07/06 12:46:29;;;;;;;1.20;0.70;;;21.70;90.00;;;;;;5010976;28;20462;-84
2022/07/06 12:48:56;;;;;;;1.43;1.00;;;21.70;90.40;;;;;;5017311;28;20455;-83
2022/07/06 12:51:23;;;;;;;2.13;0.70;;;21.70;90.50;;;;;;5032617;28;20465;-85
2022/07/06 12:53:50;;;;;;;0.90;0.70;;;21.70;90.50;;;;;;5021223;28;20877;-82